Aérodrome :
LOGIN :

S'inscrire | Disclaimer

   EN    FR    IT 

 










Légende :    VFR   VFR Marginal   IFR   IFR Intensif   IFR Très Intensif
Visi : 
Plafond : 
>= 8 km
>= 3000ft
5 à 8 km
1000 à 3000 ft
1500m à 5 km
500 à 1000 ft
800 à 1500m
200 à 500 ft
< 800m
< 200 ft
Symboles :   Orages  Brouillard  Fortes neiges  Fortes précipitations  Vent > 20 kt
SIGMETs :   Divers  Orages  Givrage  Turbulence  Onde Orograph.  Cendres Volcan.







- Altitude de l'aérodrome : 203 ft
- Code IATA : XMJ
- Voir les cartes d'approche


LFBM - Mont-De-Marsan

DERNIER METAR :
  • 261830Z AUTO 02006KT CAVOK 29/18 Q1010

METARs EXPIRÉS :
  • 261800Z AUTO 09006KT 060V120 9999 ///TCU 29/17 Q1011
  • 261730Z AUTO 08007KT 9999 ///CB 30/17 Q1010
  • 261700Z AUTO 10006KT 9999 FEW048/// ///CB 30/16 Q1010
  • 261630Z AUTO 11009KT 080V140 9999 VCTS ///CB 31/16 Q1010
  • 261600Z AUTO 11009KT 070V150 CAVOK 33/16 Q1010

TAF TAF LFBM
Valide du 26 à 15h jusqu'au 27 à 15h UTC


261400Z 2615/2715 12008KT CAVOK
BECMG 2618/2619 26010G20KT
BECMG 2622/2623 15005KT BKN009
BECMG 2707/2708 NSC
Pas de NOTAMs connus pour ce terrain.
1 SIGMET publié pour la FIR Bordeaux (LFBB) :
 
Orages noyés dans la masse
LFBB SIGMET 4 VALID 261700/261900 LFPW
LFBB BORDEAUX FIR/UIR EMBD TS OBS AT 1700Z WI N4300 W00100 - N4330 W00045 - N4300 E00100 - N4245 E00100 TOP FL390 STNR WKN=



MET'MAP, la Météo Aéronautique d'un coup d'oeil ! - Copyright ORBIFLY Décembre 2007 - Disclaimer

ORBIFLY MET'MAP TEAM :

Programmation & Développement : Alexandra Zaïnal
Conception & Développement : Baudouin d'Aumeries
Co-Programmation & Développement : Marc-Olivier Méhu
Soutien technique & logistique : Manuel Goepfert

Contact : metmap@orbifly.com




SOURCES & CREDITS :

   NOAA